createdAt,value
2022-09-06T00:04:24.291Z,2.85
2022-09-06T00:19:26.263Z,3.78
2022-09-06T00:34:29.031Z,3.08
2022-09-06T00:49:43.981Z,2.47
2022-09-06T01:04:48.562Z,3.30
2022-09-06T01:20:27.826Z,3.92
2022-09-06T01:35:42.063Z,2.88
2022-09-06T01:50:58.182Z,2.30
2022-09-06T02:06:07.204Z,3.50
2022-09-06T02:21:11.662Z,3.83
2022-09-06T02:36:16.056Z,2.63
2022-09-06T02:51:18.471Z,2.60
2022-09-06T03:06:20.503Z,2.65
2022-09-06T03:21:22.541Z,2.80
2022-09-06T03:36:24.593Z,3.50
2022-09-06T03:51:26.680Z,3.28
2022-09-06T04:06:29.050Z,4.20
2022-09-06T04:21:31.627Z,2.90
2022-09-06T04:36:33.604Z,2.97
2022-09-06T04:51:35.620Z,3.85
2022-09-06T05:06:44.763Z,5.25
2022-09-06T05:21:46.960Z,6.00
2022-09-06T05:36:49.034Z,6.97
2022-09-06T05:51:53.042Z,9.05
2022-09-06T06:06:55.043Z,5.75
2022-09-06T06:21:58.644Z,3.88
2022-09-06T06:37:00.712Z,2.65
2022-09-06T06:52:02.882Z,2.08
2022-09-06T07:22:27.663Z,3.22
2022-09-06T07:37:29.661Z,0.95
2022-09-06T08:23:15.850Z,2.72
2022-09-06T08:38:17.903Z,2.28
2022-09-06T08:53:20.398Z,0.43
2022-09-06T09:08:28.713Z,0.75
2022-09-06T09:23:31.412Z,1.65
2022-09-06T09:38:45.159Z,0.40
2022-09-06T09:53:59.151Z,1.15
2022-09-06T10:09:31.932Z,0.47
2022-09-06T17:24:37.382Z,3.90
2022-09-06T17:39:40.681Z,5.00
2022-09-06T17:54:44.829Z,9.77
2022-09-06T18:09:47.812Z,6.68
2022-09-06T18:24:51.023Z,2.72
2022-09-06T18:39:55.129Z,5.53
2022-09-06T18:54:57.213Z,4.25
2022-09-06T19:09:59.261Z,4.43
2022-09-06T19:25:01.609Z,4.72
2022-09-06T19:40:04.369Z,8.75
2022-09-06T19:55:08.140Z,9.63
2022-09-06T20:10:10.649Z,11.07
2022-09-06T20:25:12.700Z,12.85
2022-09-06T20:40:14.976Z,10.35
2022-09-06T20:55:17.127Z,10.65
2022-09-06T21:10:19.113Z,13.18
2022-09-06T21:25:21.148Z,12.45
2022-09-06T21:40:23.177Z,11.38
2022-09-06T21:55:25.229Z,14.38
2022-09-06T22:10:28.214Z,12.57
2022-09-06T22:25:31.474Z,16.17
2022-09-06T22:40:33.554Z,13.88
2022-09-06T22:55:36.076Z,17.73
2022-09-06T23:10:43.154Z,12.15
2022-09-06T23:25:45.127Z,11.80
2022-09-06T23:40:47.154Z,14.05
2022-09-06T23:55:49.234Z,15.25
